createdAt,value
2019-04-11T00:02:08.819Z,6.63
2019-04-11T00:04:38.371Z,6.43
2019-04-11T00:07:08.153Z,6.63
2019-04-11T00:09:38.771Z,6.50
2019-04-11T00:12:08.866Z,6.47
2019-04-11T00:14:38.413Z,6.20
2019-04-11T00:17:08.094Z,6.33
2019-04-11T00:19:38.005Z,6.80
2019-04-11T00:22:07.605Z,6.77
2019-04-11T00:24:37.170Z,6.73
2019-04-11T00:27:07.147Z,6.80
2019-04-11T00:29:36.821Z,6.90
2019-04-11T00:32:09.062Z,6.97
2019-04-11T00:34:37.602Z,6.73
2019-04-11T00:37:08.572Z,6.53
2019-04-11T00:39:39.555Z,6.97
2019-04-11T00:42:10.345Z,6.93
2019-04-11T00:44:41.180Z,6.10
2019-04-11T00:47:11.077Z,6.50
2019-04-11T00:49:41.172Z,6.87
2019-04-11T00:52:10.748Z,6.40
2019-04-11T00:54:40.814Z,6.67
2019-04-11T00:57:10.680Z,6.73
2019-04-11T00:59:40.666Z,6.40
2019-04-11T01:02:11.526Z,6.23
2019-04-11T01:04:41.328Z,6.83
2019-04-11T01:07:11.128Z,7.13
2019-04-11T01:09:40.745Z,6.47
2019-04-11T01:12:10.345Z,6.77
2019-04-11T01:14:40.650Z,6.80
2019-04-11T01:17:10.245Z,7.23
2019-04-11T01:19:40.694Z,6.87
2019-04-11T01:22:10.454Z,6.97
2019-04-11T01:24:40.006Z,6.47
2019-04-11T01:27:09.986Z,6.53
2019-04-11T01:29:39.934Z,6.77
2019-04-11T01:32:11.164Z,6.70
2019-04-11T01:34:40.843Z,6.50
2019-04-11T01:37:11.359Z,7.50
2019-04-11T01:39:47.454Z,7.40
2019-04-11T01:42:17.692Z,7.23
2019-04-11T01:44:47.499Z,7.60
2019-04-11T01:47:24.886Z,6.87
2019-04-11T01:49:54.552Z,7.80
2019-04-11T01:52:24.519Z,6.87
2019-04-11T01:54:54.950Z,7.70
2019-04-11T01:57:25.592Z,7.43
2019-04-11T01:59:55.588Z,7.63
2019-04-11T02:02:39.661Z,7.40
2019-04-11T02:05:18.857Z,7.73
2019-04-11T02:07:49.023Z,7.47
2019-04-11T02:10:18.954Z,7.37
2019-04-11T02:12:48.699Z,8.23
2019-04-11T02:15:19.839Z,7.50
2019-04-11T02:17:49.444Z,7.63
2019-04-11T02:20:19.062Z,8.93
2019-04-11T02:22:52.952Z,7.50
2019-04-11T02:25:33.865Z,7.83
2019-04-11T02:28:04.400Z,7.50
2019-04-11T02:30:36.287Z,7.90
2019-04-11T02:33:07.693Z,8.07
2019-04-11T02:35:39.658Z,8.30
2019-04-11T02:38:11.499Z,7.67
2019-04-11T02:40:41.258Z,8.40
2019-04-11T02:43:13.365Z,7.60
2019-04-11T02:45:55.637Z,7.43
2019-04-11T02:48:16.392Z,7.90
2019-04-11T02:50:47.627Z,8.00
2019-04-11T02:53:17.562Z,8.20
2019-04-11T02:55:49.730Z,8.53
2019-04-11T02:58:20.581Z,8.13
2019-04-11T03:00:52.993Z,8.20
2019-04-11T03:03:23.240Z,8.37
2019-04-11T03:05:53.407Z,8.77
2019-04-11T03:08:24.736Z,7.90
2019-04-11T03:10:55.757Z,8.63
2019-04-11T03:13:27.167Z,8.20
2019-04-11T03:16:12.782Z,8.23
2019-04-11T03:18:51.368Z,9.30
2019-04-11T03:21:06.536Z,8.77
2019-04-11T03:23:33.225Z,8.67
2019-04-11T03:26:05.266Z,8.90
2019-04-11T03:28:36.393Z,8.53
2019-04-11T03:31:41.679Z,8.40
2019-04-11T03:34:39.078Z,8.47
2019-04-11T03:39:08.944Z,8.43
2019-04-11T03:41:26.935Z,8.87
2019-04-11T03:43:58.041Z,8.47
2019-04-11T03:46:32.640Z,8.73
2019-04-11T03:49:00.037Z,8.73
2019-04-11T03:51:21.065Z,8.80
2019-04-11T03:53:52.144Z,8.50
2019-04-11T03:56:24.369Z,9.50
2019-04-11T03:58:55.392Z,9.07
2019-04-11T04:01:26.801Z,8.70
2019-04-11T04:03:58.193Z,8.73
2019-04-11T04:06:28.693Z,9.40
2019-04-11T04:09:00.518Z,9.27
2019-04-11T04:11:32.027Z,9.00
2019-04-11T04:14:21.319Z,8.97
2019-04-11T04:17:11.041Z,9.10
2019-04-11T04:19:54.261Z,9.90
2019-04-11T04:22:32.989Z,9.47
2019-04-11T04:25:04.313Z,8.67
2019-04-11T04:27:34.808Z,9.03
2019-04-11T04:30:06.083Z,9.97
2019-04-11T04:32:36.217Z,9.37
2019-04-11T04:35:10.457Z,9.63
2019-04-11T04:37:38.790Z,9.60
2019-04-11T04:40:24.123Z,9.57
2019-04-11T04:42:45.685Z,9.50
2019-04-11T04:45:12.391Z,9.17
2019-04-11T04:47:51.491Z,9.07
2019-04-11T04:50:13.844Z,9.60
2019-04-11T04:52:44.839Z,9.40
2019-04-11T04:55:17.251Z,10.17
2019-04-11T04:57:46.967Z,9.70
2019-04-11T05:00:16.550Z,9.93
2019-04-11T05:02:46.132Z,9.40
2019-04-11T05:05:17.695Z,9.73
2019-04-11T05:07:47.797Z,9.77
2019-04-11T05:10:17.365Z,9.93
2019-04-11T05:12:47.302Z,9.93
2019-04-11T05:15:18.606Z,10.13
2019-04-11T05:17:49.171Z,10.10
2019-04-11T05:20:19.766Z,9.90
2019-04-11T05:22:49.464Z,10.50
2019-04-11T05:25:20.015Z,10.40
2019-04-11T05:27:49.926Z,10.97
2019-04-11T05:30:19.750Z,11.70
2019-04-11T05:32:49.493Z,11.93
2019-04-11T05:35:19.085Z,11.83
2019-04-11T05:37:49.475Z,11.70
2019-04-11T05:40:19.012Z,11.60
2019-04-11T05:42:52.664Z,11.10
2019-04-11T05:45:24.163Z,10.30
2019-04-11T05:47:56.353Z,11.07
2019-04-11T05:50:30.213Z,10.60
2019-04-11T05:53:03.657Z,10.43
2019-04-11T05:55:36.350Z,11.13
2019-04-11T05:58:11.397Z,10.20
2019-04-11T06:01:14.455Z,10.37
2019-04-11T06:03:45.493Z,9.70
2019-04-11T06:06:26.728Z,10.43
2019-04-11T06:09:00.748Z,10.20
2019-04-11T06:11:39.272Z,10.30
2019-04-11T06:14:31.239Z,10.90
2019-04-11T06:17:05.078Z,10.87
2019-04-11T06:20:04.071Z,10.30
2019-04-11T06:22:56.193Z,10.33
2019-04-11T06:25:51.358Z,10.27
2019-04-11T06:28:27.661Z,10.60
2019-04-11T06:31:26.357Z,11.00
2019-04-11T06:34:05.644Z,10.33
2019-04-11T06:37:03.723Z,10.73
2019-04-11T06:39:39.776Z,10.73
2019-04-11T06:42:27.569Z,11.17
2019-04-11T06:45:29.394Z,10.57
2019-04-11T06:48:23.132Z,10.57
2019-04-11T06:51:15.616Z,10.77
2019-04-11T06:53:49.113Z,10.80
2019-04-11T06:56:30.783Z,11.07
2019-04-11T06:59:07.924Z,10.67
2019-04-11T07:01:38.613Z,11.97
2019-04-11T07:04:13.256Z,10.63
2019-04-11T07:06:46.024Z,11.03
2019-04-11T07:09:37.561Z,10.67
2019-04-11T07:12:11.675Z,11.10
2019-04-11T07:14:55.202Z,10.57
2019-04-11T07:17:43.743Z,10.27
2019-04-11T07:20:52.534Z,10.50
2019-04-11T07:23:40.520Z,10.63
2019-04-11T07:26:33.106Z,10.47
2019-04-11T07:29:22.146Z,9.70
2019-04-11T07:32:11.709Z,10.30
2019-04-11T07:35:00.047Z,10.50
2019-04-11T07:37:38.692Z,9.67
2019-04-11T07:40:29.476Z,10.90
2019-04-11T07:43:12.837Z,10.50
2019-04-11T07:45:49.001Z,10.10
2019-04-11T07:48:25.622Z,9.90
2019-04-11T07:50:55.518Z,10.63
2019-04-11T07:53:26.229Z,10.28
2019-04-11T07:55:57.460Z,10.35
2019-04-11T07:58:42.097Z,10.00
2019-04-11T08:01:30.780Z,10.32
2019-04-11T08:04:19.253Z,10.40
2019-04-11T08:07:17.683Z,9.85
2019-04-11T08:10:02.454Z,9.88
2019-04-11T08:12:33.848Z,10.55
2019-04-11T08:15:21.808Z,10.10
2019-04-11T08:17:52.180Z,9.93
2019-04-11T08:20:39.617Z,10.65
2019-04-11T08:23:09.866Z,9.43
2019-04-11T08:26:06.044Z,10.00
2019-04-11T08:28:37.330Z,9.93
2019-04-11T08:31:19.854Z,10.05
2019-04-11T08:33:50.965Z,9.83
2019-04-11T08:36:51.813Z,10.30
2019-04-11T08:39:25.243Z,9.93
2019-04-11T08:42:19.870Z,10.20
2019-04-11T08:44:50.205Z,9.23
2019-04-11T08:47:20.704Z,9.20
2019-04-11T08:49:56.974Z,9.80
2019-04-11T08:52:44.431Z,9.00
2019-04-11T08:55:21.348Z,10.03
2019-04-11T08:57:56.143Z,8.95
2019-04-11T09:00:56.281Z,9.03
2019-04-11T09:03:44.040Z,8.58
2019-04-11T09:06:20.834Z,8.35
2019-04-11T09:09:09.194Z,8.38
2019-04-11T09:11:50.423Z,9.00
2019-04-11T09:14:38.019Z,7.92
2019-04-11T09:17:36.662Z,8.25
2019-04-11T09:20:25.400Z,8.60
2019-04-11T09:22:59.594Z,7.15
2019-04-11T09:25:50.479Z,8.05
2019-04-11T09:28:24.941Z,8.15
2019-04-11T09:31:29.589Z,8.43
2019-04-11T09:34:30.616Z,8.95
2019-04-11T09:37:37.883Z,8.83
2019-04-11T09:40:27.942Z,9.25
2019-04-11T09:43:11.542Z,9.38
2019-04-11T09:46:08.179Z,9.50
2019-04-11T09:49:13.623Z,9.43
2019-04-11T09:52:12.242Z,9.55
2019-04-11T09:55:10.319Z,8.70
2019-04-11T09:57:44.056Z,9.13
2019-04-11T10:00:23.645Z,8.60
2019-04-11T10:02:56.843Z,8.58
2019-04-11T10:05:50.334Z,8.90
2019-04-11T10:08:41.653Z,8.75
2019-04-11T10:11:30.577Z,9.15
2019-04-11T10:14:07.143Z,8.75
2019-04-11T10:16:54.525Z,8.15
2019-04-11T10:19:46.519Z,8.78
2019-04-11T10:22:27.080Z,9.00
2019-04-11T10:25:08.132Z,8.83
2019-04-11T10:27:55.414Z,8.58
2019-04-11T10:30:44.118Z,8.55
2019-04-11T10:33:24.719Z,8.00
2019-04-11T10:36:10.431Z,8.08
2019-04-11T10:38:40.462Z,8.68
2019-04-11T10:41:35.264Z,8.70
2019-04-11T10:44:05.535Z,8.68
2019-04-11T10:46:53.510Z,8.73
2019-04-11T10:49:52.563Z,9.43
2019-04-11T10:52:26.546Z,8.78
2019-04-11T10:55:05.177Z,8.68
2019-04-11T10:57:40.282Z,8.70
2019-04-11T11:00:16.779Z,8.93
2019-04-11T11:03:04.161Z,9.40
2019-04-11T11:05:34.847Z,8.65
2019-04-11T11:08:17.777Z,9.13
2019-04-11T11:10:47.973Z,8.23
2019-04-11T11:13:36.070Z,8.83
2019-04-11T11:16:07.352Z,9.23
2019-04-11T11:19:24.497Z,9.45
2019-04-11T11:21:32.124Z,9.83
2019-04-11T11:24:38.238Z,9.83
2019-04-11T11:27:05.775Z,10.70
2019-04-11T11:29:58.219Z,9.80
2019-04-11T11:32:31.583Z,10.15
2019-04-11T11:35:15.116Z,10.35
2019-04-11T11:37:50.836Z,10.23
2019-04-11T11:40:39.201Z,10.60
2019-04-11T11:43:21.144Z,9.78
2019-04-11T11:46:26.718Z,10.13
2019-04-11T11:49:02.998Z,10.18
2019-04-11T11:51:58.057Z,10.05
2019-04-11T11:54:37.711Z,9.25
2019-04-11T11:57:18.823Z,9.25
2019-04-11T11:59:52.469Z,10.05
2019-04-11T12:02:26.377Z,9.90
2019-04-11T12:05:02.569Z,9.70
2019-04-11T12:07:54.569Z,9.30
2019-04-11T12:10:44.361Z,9.15
2019-04-11T12:13:38.795Z,10.03
2019-04-11T12:16:21.520Z,9.10
2019-04-11T12:19:02.603Z,9.80
2019-04-11T12:21:34.564Z,9.98
2019-04-11T12:24:29.295Z,10.32
2019-04-11T12:27:08.685Z,10.32
2019-04-11T12:29:57.479Z,9.40
2019-04-11T12:32:29.011Z,9.80
2019-04-11T12:35:27.805Z,9.43
2019-04-11T12:38:03.646Z,10.03
2019-04-11T12:40:51.251Z,9.78
2019-04-11T12:43:20.765Z,10.18
2019-04-11T12:46:29.795Z,9.98
2019-04-11T12:49:00.304Z,10.20
2019-04-11T12:51:55.282Z,9.23
2019-04-11T12:54:28.369Z,10.72
2019-04-11T12:57:17.127Z,10.47
2019-04-11T12:59:47.320Z,9.55
2019-04-11T13:02:34.914Z,9.68
2019-04-11T13:05:05.887Z,10.18
2019-04-11T13:07:54.897Z,9.60
2019-04-11T13:10:27.339Z,9.50
2019-04-11T13:13:15.981Z,9.65
2019-04-11T13:15:48.757Z,9.85
2019-04-11T13:18:37.678Z,9.67
2019-04-11T13:21:38.450Z,9.68
2019-04-11T13:24:25.925Z,9.85
2019-04-11T13:27:29.934Z,9.38
2019-04-11T13:30:17.508Z,9.33
2019-04-11T13:33:01.361Z,9.33
2019-04-11T13:35:50.061Z,9.48
2019-04-11T13:38:22.706Z,9.30
2019-04-11T13:41:20.656Z,9.70
2019-04-11T13:43:55.897Z,10.00
2019-04-11T13:46:44.627Z,9.98
2019-04-11T13:49:39.780Z,10.10
2019-04-11T13:52:28.506Z,9.70
2019-04-11T13:55:02.291Z,9.13
2019-04-11T13:57:56.889Z,9.30
2019-04-11T14:00:41.298Z,9.43
2019-04-11T14:03:25.741Z,9.77
2019-04-11T14:05:57.117Z,9.98
2019-04-11T14:08:32.333Z,9.63
2019-04-11T14:11:10.950Z,10.00
2019-04-11T14:13:42.185Z,9.53
2019-04-11T14:16:17.373Z,9.97
2019-04-11T14:19:03.655Z,10.60
2019-04-11T14:21:33.319Z,10.53
2019-04-11T14:24:41.705Z,10.20
2019-04-11T14:27:19.907Z,10.57
2019-04-11T14:30:08.672Z,10.60
2019-04-11T14:32:42.938Z,10.60
2019-04-11T14:35:34.644Z,11.13
2019-04-11T14:38:09.996Z,10.60
2019-04-11T14:41:14.070Z,10.90
2019-04-11T14:43:59.200Z,11.47
2019-04-11T14:47:06.671Z,11.13
2019-04-11T14:49:34.981Z,10.40
2019-04-11T14:52:38.977Z,10.07
2019-04-11T14:55:08.784Z,10.53
2019-04-11T14:58:00.995Z,10.20
2019-04-11T15:00:39.063Z,10.33
2019-04-11T15:03:38.550Z,10.23
2019-04-11T15:06:25.305Z,10.17
2019-04-11T15:09:16.881Z,10.07
2019-04-11T15:11:56.118Z,10.50
2019-04-11T15:14:47.495Z,9.60
2019-04-11T15:17:21.384Z,10.43
2019-04-11T15:19:56.035Z,9.63
2019-04-11T15:22:35.506Z,10.67
2019-04-11T15:25:10.976Z,11.67
2019-04-11T15:27:58.606Z,10.50
2019-04-11T15:30:29.628Z,10.53
2019-04-11T15:33:27.537Z,10.93
2019-04-11T15:35:58.549Z,11.27
2019-04-11T15:39:05.929Z,10.60
2019-04-11T15:41:36.359Z,11.20
2019-04-11T15:44:44.567Z,10.60
2019-04-11T15:47:18.840Z,11.37
2019-04-11T15:50:09.028Z,10.93
2019-04-11T15:52:42.383Z,10.90
2019-04-11T15:55:30.055Z,10.40
2019-04-11T15:57:59.772Z,10.40
2019-04-11T16:01:03.970Z,10.37
2019-04-11T16:03:34.496Z,10.67
2019-04-11T16:06:38.910Z,10.37
2019-04-11T16:09:11.925Z,10.10
2019-04-11T16:12:19.255Z,10.47
2019-04-11T16:14:49.096Z,11.03
2019-04-11T16:17:57.955Z,10.40
2019-04-11T16:20:27.327Z,10.73
2019-04-11T16:23:16.064Z,10.30
2019-04-11T16:25:49.337Z,10.23
2019-04-11T16:28:38.161Z,10.03
2019-04-11T16:31:10.710Z,10.03
2019-04-11T16:33:59.965Z,10.17
2019-04-11T16:36:47.355Z,10.83
2019-04-11T16:39:45.227Z,9.93
2019-04-11T16:42:17.530Z,10.60
2019-04-11T16:45:18.491Z,11.13
2019-04-11T16:48:02.526Z,10.27
2019-04-11T16:50:32.271Z,10.70
2019-04-11T16:53:02.298Z,10.33
2019-04-11T16:55:31.996Z,10.60
2019-04-11T16:58:01.579Z,10.47
2019-04-11T17:00:31.514Z,10.13
2019-04-11T17:03:01.172Z,10.47
2019-04-11T17:05:30.849Z,10.47
2019-04-11T17:08:26.441Z,10.20
2019-04-11T17:11:15.041Z,9.93
2019-04-11T17:13:44.942Z,9.87
2019-04-11T17:16:16.991Z,10.43
2019-04-11T17:18:46.589Z,9.50
2019-04-11T17:21:16.537Z,10.50
2019-04-11T17:23:47.111Z,11.37
2019-04-11T17:26:17.442Z,11.23
2019-04-11T17:28:47.397Z,10.27
2019-04-11T17:31:17.058Z,11.40
2019-04-11T17:33:46.647Z,10.60
2019-04-11T17:36:16.566Z,11.13
2019-04-11T17:38:46.842Z,10.77
2019-04-11T17:41:16.691Z,10.93
2019-04-11T17:43:49.751Z,10.87
2019-04-11T17:46:18.101Z,9.37
2019-04-11T17:48:50.404Z,10.50
2019-04-11T17:51:20.231Z,9.80
2019-04-11T17:53:49.772Z,9.33
2019-04-11T17:56:19.795Z,9.47
2019-04-11T17:58:50.239Z,10.43
2019-04-11T18:01:21.177Z,10.20
2019-04-11T18:03:51.219Z,10.43
2019-04-11T18:06:20.798Z,9.83
2019-04-11T18:08:52.122Z,9.87
2019-04-11T18:11:25.664Z,11.47
2019-04-11T18:13:54.553Z,10.07
2019-04-11T18:16:24.264Z,10.40
2019-04-11T18:18:53.846Z,9.30
2019-04-11T18:21:23.427Z,9.60
2019-04-11T18:23:53.126Z,9.53
2019-04-11T18:26:23.044Z,14.97
2019-04-11T18:28:52.701Z,12.63
2019-04-11T18:31:25.017Z,12.30
2019-04-11T18:33:54.985Z,10.43
2019-04-11T18:36:24.658Z,9.50
2019-04-11T18:38:54.335Z,8.67
2019-04-11T18:41:23.977Z,8.57
2019-04-11T18:43:53.737Z,8.80
2019-04-11T18:46:23.344Z,9.27
2019-04-11T18:48:54.532Z,8.87
2019-04-11T18:51:24.262Z,9.40
2019-04-11T18:53:54.238Z,8.43
2019-04-11T18:56:23.955Z,8.43
2019-04-11T18:58:54.937Z,9.37
2019-04-11T19:01:24.602Z,8.23
2019-04-11T19:03:54.231Z,8.37
2019-04-11T19:06:27.969Z,8.20
2019-04-11T19:08:55.101Z,8.63
2019-04-11T19:11:24.654Z,8.20
2019-04-11T19:13:54.417Z,8.57
2019-04-11T19:16:24.008Z,8.23
2019-04-11T19:18:53.685Z,8.57
2019-04-11T19:21:23.272Z,8.70
2019-04-11T19:23:52.876Z,8.43
2019-04-11T19:26:22.973Z,8.50
2019-04-11T19:28:55.242Z,8.70
2019-04-11T19:31:27.138Z,8.83
2019-04-11T19:33:55.454Z,8.43
2019-04-11T19:36:25.414Z,8.57
2019-04-11T19:38:54.993Z,8.20
2019-04-11T19:41:24.502Z,8.50
2019-04-11T19:43:54.250Z,8.13
2019-04-11T19:46:23.908Z,8.47
2019-04-11T19:48:57.076Z,8.70
2019-04-11T19:51:28.745Z,8.93
2019-04-11T19:53:56.023Z,8.37
2019-04-11T19:56:33.472Z,8.57
2019-04-11T19:59:03.191Z,9.07
2019-04-11T20:01:32.763Z,8.50
2019-04-11T20:04:02.480Z,8.60
2019-04-11T20:06:32.171Z,8.97
2019-04-11T20:09:03.388Z,9.10
2019-04-11T20:11:34.615Z,9.10
2019-04-11T20:14:04.633Z,8.93
2019-04-11T20:16:41.407Z,8.10
2019-04-11T20:19:05.904Z,8.53
2019-04-11T20:21:37.919Z,8.57
2019-04-11T20:24:06.774Z,9.40
2019-04-11T20:26:36.373Z,8.53
2019-04-11T20:29:05.966Z,8.07
2019-04-11T20:31:35.906Z,8.40
2019-04-11T20:34:07.278Z,8.87
2019-04-11T20:36:40.780Z,9.03
2019-04-11T20:39:09.055Z,8.80
2019-04-11T20:41:38.881Z,9.00
2019-04-11T20:44:08.585Z,9.03
2019-04-11T20:46:38.257Z,8.73
2019-04-11T20:49:07.779Z,8.23
2019-04-11T20:51:37.374Z,8.70
2019-04-11T20:54:07.867Z,8.17
2019-04-11T20:56:40.282Z,8.60
2019-04-11T20:59:10.329Z,7.93
2019-04-11T21:01:41.617Z,8.70
2019-04-11T21:04:11.206Z,8.60
2019-04-11T21:06:40.719Z,8.40
2019-04-11T21:09:12.011Z,8.30
2019-04-11T21:11:42.065Z,8.37
2019-04-11T21:14:12.111Z,8.30
2019-04-11T21:16:41.796Z,7.77
2019-04-11T21:19:11.394Z,8.00
2019-04-11T21:21:41.294Z,7.70
2019-04-11T21:24:10.879Z,7.73
2019-04-11T21:26:40.482Z,7.70
2019-04-11T21:29:09.970Z,8.00
2019-04-11T21:31:39.580Z,7.60
2019-04-11T21:34:09.217Z,7.10
2019-04-11T21:36:38.867Z,7.13
2019-04-11T21:39:08.495Z,7.43
2019-04-11T21:41:39.264Z,7.47
2019-04-11T21:44:08.871Z,7.60
2019-04-11T21:46:40.520Z,7.97
2019-04-11T21:49:09.646Z,7.70
2019-04-11T21:51:42.332Z,7.43
2019-04-11T21:54:14.664Z,7.87
2019-04-11T21:56:42.441Z,7.50
2019-04-11T21:59:13.121Z,7.87
2019-04-11T22:01:43.531Z,8.70
2019-04-11T22:04:13.527Z,7.23
2019-04-11T22:06:43.125Z,7.80
2019-04-11T22:09:13.986Z,7.90
2019-04-11T22:11:43.644Z,8.30
2019-04-11T22:14:13.678Z,8.67
2019-04-11T22:16:45.104Z,7.73
2019-04-11T22:19:14.959Z,8.43
2019-04-11T22:21:45.294Z,8.20
2019-04-11T22:24:15.965Z,8.03
2019-04-11T22:26:50.131Z,8.13
2019-04-11T22:29:17.810Z,8.20
2019-04-11T22:31:47.430Z,8.53
2019-04-11T22:34:25.982Z,8.40
2019-04-11T22:36:59.764Z,8.83
2019-04-11T22:39:28.982Z,8.40
2019-04-11T22:41:58.738Z,8.30
2019-04-11T22:44:28.770Z,8.47
2019-04-11T22:46:58.397Z,8.07
2019-04-11T22:49:28.326Z,7.97
2019-04-11T22:51:57.839Z,8.40
2019-04-11T22:54:27.404Z,8.33
2019-04-11T22:56:56.967Z,7.70
2019-04-11T22:59:26.461Z,7.80
2019-04-11T23:01:59.369Z,7.97
2019-04-11T23:04:29.048Z,8.80
2019-04-11T23:06:58.655Z,8.37
2019-04-11T23:09:28.222Z,8.37
2019-04-11T23:11:57.951Z,8.40
2019-04-11T23:14:27.568Z,8.70
2019-04-11T23:16:57.075Z,9.40
2019-04-11T23:19:26.526Z,9.61
2019-04-11T23:21:55.968Z,7.97
2019-04-11T23:24:25.330Z,9.00
2019-04-11T23:26:54.907Z,8.83
2019-04-11T23:29:24.370Z,8.53
2019-04-11T23:31:53.784Z,8.50
2019-04-11T23:34:24.387Z,9.07
2019-04-11T23:36:53.705Z,8.60
2019-04-11T23:39:23.522Z,8.53
2019-04-11T23:41:53.317Z,8.63
2019-04-11T23:44:22.649Z,8.53
2019-04-11T23:46:52.628Z,8.20
2019-04-11T23:49:24.737Z,9.60
2019-04-11T23:51:55.685Z,9.03
2019-04-11T23:54:24.273Z,8.80
2019-04-11T23:56:53.538Z,8.90
2019-04-11T23:59:22.823Z,8.57
